• Join FlightAware (Why Join?)
  • Login
  • US Flag 
12:05PM EDT


 

Airport Tracker/Info


-or-


 

Live Flight TrackerFlight Track Log ✈ FLG3429 ✈ 13-Jun-2013 ✈ KPSC - KMSP

Flight Track Log - Related Links

Times and Time Zones

All times are in EDT time to prevent confusion due to time zone crossing. See the FLG3429 flight status page for this flight to view local times or setup timezone preferences in your user account.

Time Position Orientation Groundspeed Altitude Reporting Facility
EDT Latitude Longitude Course Direction KTS MPH feet Rate Location/Type
04:36PM 46.2000 -119.1650 72° East 268 308 3,600  Level Seattle Center
04:37PM 46.3713 -118.6066 73° East  Level FlightAware Approximate
04:37PM 46.2050 -119.0617 86° East 266 306 5,700  Level Seattle Center
04:38PM 46.4084 -118.4335 73° East  Level FlightAware Approximate
04:38PM 46.2322 -118.9558 70° East 275 316 8,400  Level Seattle Center
04:39PM 46.4459 -118.2605 72° East  Level FlightAware Approximate
04:39PM 46.2625 -118.8428 69° East 285 328 10,800  Level Seattle Center
04:40PM 46.4845 -118.0878 72° East  Level FlightAware Approximate
04:40PM 46.2972 -118.7142 69° East 332 382 11,800  Level Seattle Center
04:41PM 46.5231 -117.9133 72° East  Level FlightAware Approximate
04:41PM 46.3350 -118.5700 69° East 372 428 13,700  Level Seattle Center
04:42PM 46.3744 -118.4206 69° East 393 452 15,500 1,860 Climbing Seattle Center
04:43PM 46.4219 -118.2372 69° East 404 465 17,600 1,620 Climbing Seattle Center
04:44PM 46.4614 -118.0792 70° East 416 479 18,900 1,320 Climbing Seattle Center
04:45PM 46.5033 -117.9150 70° East 432 497 20,300 1,320 Climbing Seattle Center
04:46PM 46.5453 -117.7489 70° East 438 504 21,700 1,260 Climbing Seattle Center
04:47PM 46.5883 -117.5792 70° East 446 513 22,900 1,080 Climbing Seattle Center
04:48PM 46.6311 -117.4053 70° East 458 527 24,000 900 Climbing Seattle Center
04:49PM 46.6769 -117.2281 69° East 469 540 24,800 840 Climbing Seattle Center
04:50PM 46.7547 -117.0678 55° Northeast 480 552 25,800 1,020 Climbing Seattle Center
04:51PM 46.7828 -116.8808 78° East 474 545 26,900 1,200 Climbing Seattle Center
04:52PM 46.8022 -116.6533 83° East 474 545 28,300 1,140 Climbing Seattle Center
04:53PM 46.8181 -116.4633 83° East 475 547 29,300 900 Climbing Seattle Center
04:54PM 46.8347 -116.2700 83° East 480 552 30,200 960 Climbing Seattle Center
04:55PM 46.8497 -116.0789 83° East 478 550 31,300 900 Climbing Seattle Center
04:56PM 46.8647 -115.8839 84° East 483 556 32,100 780 Climbing Seattle Center
04:57PM 46.8797 -115.6892 83° East 486 559 32,900 780 Climbing Seattle Center
04:58PM 46.8878 -115.5883 83° East 486 559 33,300 780 Climbing Salt Lake Center
04:59PM 46.9019 -115.3925 84° East 486 559 34,100 780 Climbing Salt Lake Center
04:59PM 46.9100 -115.2744 84° East 488 562 34,600 780 Climbing Seattle Center
05:00PM 46.9247 -115.0792 84° East 486 559 35,400 780 Climbing Seattle Center
05:01PM 46.9372 -114.8853 85° East 482 555 36,200 720 Climbing Seattle Center
05:02PM 46.9428 -114.8075 84° East 480 552 36,500 480 Climbing Salt Lake Center
05:03PM 46.9553 -114.6164 84° East 476 548 37,000 240 Climbing Salt Lake Center
05:04PM 46.9708 -114.3839 84° East 482 555 37,000  Level Salt Lake Center
05:05PM 46.9839 -114.1861 84° East 491 565 37,000  Level Salt Lake Center
05:06PM 46.9964 -113.9850 85° East 497 572 37,000  Level Salt Lake Center
05:07PM 47.0081 -113.7858 85° East 496 571 37,000  Level Salt Lake Center
05:08PM 47.0214 -113.5856 84° East 496 571 37,000  Level Salt Lake Center
05:09PM 47.0333 -113.3461 86° East 494 568 37,000  Level Salt Lake Center
05:10PM 47.0439 -113.1492 85° East 488 562 37,000  Level Salt Lake Center
05:11PM 47.0547 -112.9464 85° East 485 558 37,000 -60 Level Salt Lake Center
05:12PM 47.0647 -112.7692 85° East 487 560 36,900  Descending Salt Lake Center
05:13PM 47.0750 -112.5322 86° East 487 560 37,000  Climbing Salt Lake Center
05:14PM 47.0853 -112.3369 86° East 485 558 37,000  Level Salt Lake Center
05:15PM 47.0950 -112.1375 86° East 491 565 37,000  Level Salt Lake Center
05:16PM 47.1033 -111.9394 86° East 490 564 37,000  Level Salt Lake Center
05:17PM 47.1111 -111.7394 87° East 493 567 37,000 -60 Level Salt Lake Center
05:18PM 47.1203 -111.4994 87° East 495 570 36,900  Descending Salt Lake Center
05:19PM 47.1281 -111.2992 87° East 496 571 37,000  Climbing Salt Lake Center
05:20PM 47.1358 -111.0981 87° East 497 572 37,000  Level Salt Lake Center
05:22PM 47.1425 -110.8964 87° East 499 574 37,000  Level Salt Lake Center
05:23PM 47.1497 -110.6956 87° East 498 573 37,000  Level Salt Lake Center
05:24PM 47.1556 -110.4533 88° East 498 573 37,000  Level Salt Lake Center
05:25PM 47.1617 -110.2494 87° East 502 578 37,000  Level Salt Lake Center
05:26PM 47.1669 -110.0458 88° East 501 577 37,000  Level Salt Lake Center
05:27PM 47.1722 -109.8419 88° East 502 578 37,000 -60 Level Salt Lake Center
05:28PM 47.1769 -109.6364 88° East 505 581 36,900  Descending Salt Lake Center
05:29PM 47.1811 -109.4308 88° East 506 582 37,000  Climbing Salt Lake Center
05:30PM 47.1858 -109.1825 88° East 509 586 37,000  Level Salt Lake Center
05:31PM 47.1886 -108.9903 89° East 508 585 37,000  Level Salt Lake Center
05:32PM 47.1917 -108.7828 89° East 510 587 37,000  Level Salt Lake Center
05:33PM 47.1958 -108.5325 89° East 511 588 37,000  Level Salt Lake Center
05:34PM 47.1964 -108.3217 90° East 514 592 37,000  Level Salt Lake Center
05:35PM 47.2033 -108.0992 87° East 514 592 37,000  Level Salt Lake Center
05:36PM 47.2039 -107.8892 90° East 516 594 37,000  Level Salt Lake Center
05:37PM 47.2064 -107.6772 89° East 519 597 37,000  Level Salt Lake Center
05:38PM 47.2061 -107.4644 90° East 521 600 37,000  Level Salt Lake Center
05:39PM 47.2058 -107.2236 90° East 523 602 37,000  Level Salt Lake Center
05:40PM 47.2064 -107.0097 90° East 524 603 37,000  Level Salt Lake Center
05:41PM 47.2069 -106.7944 90° East 527 606 37,000  Level Salt Lake Center
05:42PM 47.2061 -106.5792 90° East 528 608 37,000  Level Salt Lake Center
05:43PM 47.2058 -106.3656 90° East 527 606 37,000  Level Salt Lake Center
05:44PM 47.2014 -106.1497 92° East 527 606 37,000  Level Salt Lake Center
05:45PM 47.1989 -105.8903 91° East 530 610 37,000  Level Salt Lake Center
05:46PM 47.1967 -105.6742 91° East 531 611 37,000  Level Salt Lake Center
05:47PM 47.1942 -105.4578 91° East 531 611 37,000  Level Salt Lake Center
05:48PM 47.1919 -105.2406 91° East 532 612 37,000  Level Salt Lake Center
05:49PM 47.1872 -105.0225 92° East 534 615 37,000  Level Salt Lake Center
05:50PM 47.1825 -104.7628 91° East 534 615 37,000  Level Salt Lake Center
05:51PM 47.1786 -104.5453 91° East 535 616 37,000  Level Salt Lake Center
05:53PM 47.1739 -104.3294 92° East 535 616 37,000  Level Salt Lake Center
05:54PM 47.1689 -104.1128 92° East 535 616 37,000  Level Salt Lake Center
05:55PM 47.1631 -103.8994 92° East 533 613 37,000  Level Salt Lake Center
05:56PM 47.1561 -103.6408 92° East 533 613 37,000  Level Salt Lake Center
05:57PM 47.1500 -103.4256 92° East 533 613 37,000  Level Salt Lake Center
05:58PM 47.1428 -103.2108 93° East 532 612 37,000  Level Salt Lake Center
05:59PM 47.1353 -102.9950 93° East 532 612 37,000  Level Salt Lake Center
06:00PM 47.1289 -102.7783 92° East 533 613 37,000  Level Salt Lake Center
06:01PM 47.1222 -102.5200 92° East 532 612 37,000  Level Salt Lake Center
06:02PM 47.1122 -102.3053 94° East 532 612 37,000  Level Salt Lake Center
06:03PM 47.1017 -102.0892 94° East 532 612 37,000  Level Salt Lake Center
06:04PM 47.0922 -101.8708 94° East 534 615 37,000  Level Salt Lake Center
06:05PM 47.0797 -101.6106 94° East 540 621 37,000  Level Minneapolis Center
06:06PM 47.0675 -101.3447 94° East 544 626 37,000  Level Minneapolis Center
06:07PM 47.0600 -101.1208 93° East 549 632 37,000  Level Minneapolis Center
06:08PM 47.0467 -100.9128 95° East 546 628 37,000  Level Minneapolis Center
06:09PM 47.0294 -100.6925 96° East 546 628 37,000  Level Minneapolis Center
06:10PM 46.9875 -100.4347 103° East 543 625 37,000  Level Minneapolis Center
06:11PM 46.9489 -100.2189 105° East 549 632 37,000  Level Minneapolis Center
06:12PM 46.9103 -100.0056 105° East 548 631 37,000  Level Minneapolis Center
06:13PM 46.8742 -99.7928 104° East 546 628 37,000  Level Minneapolis Center
06:14PM 46.8369 -99.5803 104° East 543 625 37,000  Level Minneapolis Center
06:16PM 46.7975 -99.3675 105° East 546 628 37,000  Level Minneapolis Center
06:17PM 46.7508 -99.1108 105° East 548 631 37,000  Level Minneapolis Center
06:18PM 46.7111 -98.8972 105° East 550 633 37,000  Level Minneapolis Center
06:19PM 46.6708 -98.6831 105° East 551 634 37,000  Level Minneapolis Center
06:20PM 46.6303 -98.4681 105° East 553 636 37,000  Level Minneapolis Center
06:21PM 46.5894 -98.2556 106° East 553 636 37,000  Level Minneapolis Center
06:22PM 46.5386 -97.9986 106° East 555 639 37,000  Level Minneapolis Center
06:23PM 46.4967 -97.7844 106° East 556 640 37,000  Level Minneapolis Center
06:24PM 46.4533 -97.5714 106° East 554 638 37,000  Level Minneapolis Center
06:25PM 46.4106 -97.3569 106° East 556 640 37,000  Level Minneapolis Center
06:26PM 46.3672 -97.1431 106° East 557 641 37,000  Level Minneapolis Center
06:27PM 46.3150 -96.8867 106° East 557 641 37,000 -60 Level Minneapolis Center
06:28PM 46.2708 -96.6744 107° East 555 639 36,900  Descending Minneapolis Center
06:29PM 46.2269 -96.4633 107° East 553 636 37,000  Climbing Minneapolis Center
06:30PM 46.1814 -96.2533 107° East 552 635 37,000  Level Minneapolis Center
06:31PM 46.1286 -96.0081 107° East 549 632 37,000  Level Minneapolis Center
06:32PM 46.1019 -95.7881 100° East 553 636 37,000  Level Minneapolis Center
06:33PM 46.0831 -95.5678 97° East 555 639 37,000 -120 Level Minneapolis Center
06:34PM 46.0636 -95.3475 97° East 554 638 36,800 -840 Descending Minneapolis Center
06:35PM 46.0450 -95.1253 97° East 558 642 35,300 -1,500 Descending Minneapolis Center
06:36PM 46.0250 -94.8967 97° East 562 647 33,700 -1,500 Descending Minneapolis Center
06:37PM 46.0036 -94.6731 98° East 565 650 32,200 -2,520 Descending Minneapolis Center
06:38PM 45.9417 -94.4250 110° East 553 636 28,600 -3,360 Descending Minneapolis Center
06:39PM 45.8942 -94.2369 110° East 516 594 25,300 -3,120 Descending Minneapolis Center
06:40PM 45.8514 -94.0683 110° East 461 531 22,200 -2,940 Descending Minneapolis Center
06:41PM 45.8086 -93.9053 111° Southeast 443 510 19,200 -2,880 Descending Minneapolis Center
06:42PM 45.7689 -93.7508 110° East 416 479 16,300 -2,760 Descending Minneapolis Center
06:43PM 45.6878 -93.6644 143° Southeast 377 434 13,600 -2,400 Descending Minneapolis Center
06:44PM 45.5767 -93.6017 158° South 356 410 11,400 -1,260 Descending Minneapolis Center
06:46PM 45.4944 -93.5589 160° South 316 364 11,000 -960 Descending Minneapolis Center
06:47PM 45.4125 -93.5350 168° South 300 345 9,500 -1,020 Descending Minneapolis Center
06:48PM 45.3306 -93.5511 188° South 298 343 9,000 -600 Descending Minneapolis Center
06:49PM 45.2586 -93.5611 186° South 267 307 8,300 -1,140 Descending Minneapolis Center
06:50PM 45.1767 -93.5506 175° South 246 283 6,700 -1,560 Descending Minneapolis Center
06:51PM 45.1186 -93.5186 159° South 229 264 5,100 -1,260 Descending Minneapolis Center
06:52PM 45.0658 -93.4769 151° Southeast 219 252 4,100 -540 Descending Minneapolis Center
06:53PM 45.0147 -93.4322 148° Southeast 216 249 4,000 -120 Descending Minneapolis Center